sensor_id;sensor_type;location;lat;lon;timestamp;P1;durP1;ratioP1;P2;durP2;ratioP2
11078;SDS011;5592;49.234;7.268;2024-02-26T00:01:38;1.63;;;0.70;;
11078;SDS011;5592;49.234;7.268;2024-02-26T00:04:03;0.80;;;0.60;;
11078;SDS011;5592;49.234;7.268;2024-02-26T00:06:29;5.93;;;1.20;;
11078;SDS011;5592;49.234;7.268;2024-02-26T00:08:56;0.80;;;0.80;;
11078;SDS011;5592;49.234;7.268;2024-02-26T00:11:22;1.93;;;0.90;;
11078;SDS011;5592;49.234;7.268;2024-02-26T00:13:47;0.87;;;0.70;;
11078;SDS011;5592;49.234;7.268;2024-02-26T00:16:13;1.53;;;0.80;;
11078;SDS011;5592;49.234;7.268;2024-02-26T00:18:39;1.40;;;0.90;;
11078;SDS011;5592;49.234;7.268;2024-02-26T00:21:04;0.60;;;0.60;;
11078;SDS011;5592;49.234;7.268;2024-02-26T00:23:30;0.70;;;0.70;;
11078;SDS011;5592;49.234;7.268;2024-02-26T00:25:56;0.73;;;0.70;;
11078;SDS011;5592;49.234;7.268;2024-02-26T00:28:21;1.97;;;0.70;;
11078;SDS011;5592;49.234;7.268;2024-02-26T00:30:47;2.63;;;0.80;;
11078;SDS011;5592;49.234;7.268;2024-02-26T00:33:14;0.90;;;0.73;;
11078;SDS011;5592;49.234;7.268;2024-02-26T00:35:41;0.80;;;0.70;;
11078;SDS011;5592;49.234;7.268;2024-02-26T00:38:07;0.60;;;0.60;;
11078;SDS011;5592;49.234;7.268;2024-02-26T00:40:33;2.40;;;0.90;;
11078;SDS011;5592;49.234;7.268;2024-02-26T00:42:59;0.70;;;0.70;;
11078;SDS011;5592;49.234;7.268;2024-02-26T00:45:24;0.93;;;0.80;;
11078;SDS011;5592;49.234;7.268;2024-02-26T00:47:50;1.30;;;0.87;;
11078;SDS011;5592;49.234;7.268;2024-02-26T00:50:16;0.97;;;0.90;;
11078;SDS011;5592;49.234;7.268;2024-02-26T00:52:42;1.90;;;1.00;;
11078;SDS011;5592;49.234;7.268;2024-02-26T00:55:07;1.20;;;0.90;;
11078;SDS011;5592;49.234;7.268;2024-02-26T00:57:33;1.13;;;0.90;;
11078;SDS011;5592;49.234;7.268;2024-02-26T01:00:01;0.90;;;0.90;;
11078;SDS011;5592;49.234;7.268;2024-02-26T01:02:27;0.87;;;0.80;;
11078;SDS011;5592;49.234;7.268;2024-02-26T01:04:52;1.47;;;0.90;;
11078;SDS011;5592;49.234;7.268;2024-02-26T01:07:18;1.07;;;0.70;;
11078;SDS011;5592;49.234;7.268;2024-02-26T01:09:44;1.80;;;1.10;;
11078;SDS011;5592;49.234;7.268;2024-02-26T01:12:10;1.73;;;1.10;;
11078;SDS011;5592;49.234;7.268;2024-02-26T01:14:35;1.30;;;1.03;;
11078;SDS011;5592;49.234;7.268;2024-02-26T01:17:01;1.27;;;0.90;;
11078;SDS011;5592;49.234;7.268;2024-02-26T01:19:27;2.00;;;1.20;;
11078;SDS011;5592;49.234;7.268;2024-02-26T01:21:52;0.80;;;0.80;;
11078;SDS011;5592;49.234;7.268;2024-02-26T01:24:18;1.50;;;1.00;;
11078;SDS011;5592;49.234;7.268;2024-02-26T01:26:44;1.87;;;0.80;;
11078;SDS011;5592;49.234;7.268;2024-02-26T01:29:09;1.23;;;0.93;;
11078;SDS011;5592;49.234;7.268;2024-02-26T01:31:35;0.90;;;0.80;;
11078;SDS011;5592;49.234;7.268;2024-02-26T01:34:01;1.27;;;0.77;;
11078;SDS011;5592;49.234;7.268;2024-02-26T01:36:27;3.20;;;1.10;;
11078;SDS011;5592;49.234;7.268;2024-02-26T01:38:52;1.77;;;1.13;;
11078;SDS011;5592;49.234;7.268;2024-02-26T01:41:18;1.10;;;1.00;;
11078;SDS011;5592;49.234;7.268;2024-02-26T01:43:44;1.33;;;0.83;;
11078;SDS011;5592;49.234;7.268;2024-02-26T01:46:10;0.87;;;0.87;;
11078;SDS011;5592;49.234;7.268;2024-02-26T01:48:39;3.63;;;1.40;;
11078;SDS011;5592;49.234;7.268;2024-02-26T01:51:09;1.17;;;1.03;;
11078;SDS011;5592;49.234;7.268;2024-02-26T01:53:37;2.50;;;1.17;;
11078;SDS011;5592;49.234;7.268;2024-02-26T01:56:03;1.17;;;1.07;;
11078;SDS011;5592;49.234;7.268;2024-02-26T01:58:29;0.80;;;0.80;;
11078;SDS011;5592;49.234;7.268;2024-02-26T02:00:56;1.30;;;0.90;;
11078;SDS011;5592;49.234;7.268;2024-02-26T02:03:22;1.20;;;1.10;;
11078;SDS011;5592;49.234;7.268;2024-02-26T02:05:48;1.03;;;0.93;;
11078;SDS011;5592;49.234;7.268;2024-02-26T02:08:14;1.50;;;0.83;;
11078;SDS011;5592;49.234;7.268;2024-02-26T02:10:40;1.80;;;1.07;;
11078;SDS011;5592;49.234;7.268;2024-02-26T02:13:07;1.50;;;1.03;;
11078;SDS011;5592;49.234;7.268;2024-02-26T02:15:33;3.07;;;0.97;;
11078;SDS011;5592;49.234;7.268;2024-02-26T02:17:59;1.20;;;1.07;;
11078;SDS011;5592;49.234;7.268;2024-02-26T02:20:25;1.17;;;1.00;;
11078;SDS011;5592;49.234;7.268;2024-02-26T02:22:57;5.23;;;1.30;;
11078;SDS011;5592;49.234;7.268;2024-02-26T02:25:23;2.00;;;0.90;;
11078;SDS011;5592;49.234;7.268;2024-02-26T02:27:48;1.30;;;1.10;;
11078;SDS011;5592;49.234;7.268;2024-02-26T02:30:14;2.77;;;1.20;;
11078;SDS011;5592;49.234;7.268;2024-02-26T02:32:40;1.90;;;1.37;;
11078;SDS011;5592;49.234;7.268;2024-02-26T02:35:06;1.57;;;1.20;;
11078;SDS011;5592;49.234;7.268;2024-02-26T02:37:32;1.07;;;0.97;;
11078;SDS011;5592;49.234;7.268;2024-02-26T02:39:58;1.00;;;0.90;;
11078;SDS011;5592;49.234;7.268;2024-02-26T02:42:25;2.47;;;1.07;;
11078;SDS011;5592;49.234;7.268;2024-02-26T02:44:50;2.40;;;1.10;;
11078;SDS011;5592;49.234;7.268;2024-02-26T02:47:16;1.80;;;0.73;;
11078;SDS011;5592;49.234;7.268;2024-02-26T02:49:42;1.20;;;1.10;;
11078;SDS011;5592;49.234;7.268;2024-02-26T02:52:07;1.87;;;1.10;;
11078;SDS011;5592;49.234;7.268;2024-02-26T02:54:33;1.30;;;1.20;;
11078;SDS011;5592;49.234;7.268;2024-02-26T02:56:59;1.83;;;1.23;;
11078;SDS011;5592;49.234;7.268;2024-02-26T02:59:24;2.20;;;1.40;;
11078;SDS011;5592;49.234;7.268;2024-02-26T03:01:51;2.50;;;1.30;;
11078;SDS011;5592;49.234;7.268;2024-02-26T03:04:17;2.03;;;1.27;;
11078;SDS011;5592;49.234;7.268;2024-02-26T03:06:43;2.60;;;1.13;;
11078;SDS011;5592;49.234;7.268;2024-02-26T03:09:08;1.67;;;1.33;;
11078;SDS011;5592;49.234;7.268;2024-02-26T03:11:34;1.43;;;1.30;;
11078;SDS011;5592;49.234;7.268;2024-02-26T03:14:00;1.83;;;1.60;;
11078;SDS011;5592;49.234;7.268;2024-02-26T03:16:25;1.63;;;1.27;;
11078;SDS011;5592;49.234;7.268;2024-02-26T03:18:51;1.70;;;1.10;;
11078;SDS011;5592;49.234;7.268;2024-02-26T03:21:17;2.37;;;1.30;;
11078;SDS011;5592;49.234;7.268;2024-02-26T03:23:43;2.57;;;1.80;;
11078;SDS011;5592;49.234;7.268;2024-02-26T03:26:08;1.30;;;1.10;;
11078;SDS011;5592;49.234;7.268;2024-02-26T03:28:38;1.33;;;1.20;;
11078;SDS011;5592;49.234;7.268;2024-02-26T03:31:04;1.53;;;1.30;;
11078;SDS011;5592;49.234;7.268;2024-02-26T03:33:29;2.73;;;1.40;;
11078;SDS011;5592;49.234;7.268;2024-02-26T03:35:55;2.00;;;1.27;;
11078;SDS011;5592;49.234;7.268;2024-02-26T03:38:21;1.33;;;1.20;;
11078;SDS011;5592;49.234;7.268;2024-02-26T03:40:47;2.80;;;1.30;;
11078;SDS011;5592;49.234;7.268;2024-02-26T03:43:13;2.20;;;1.50;;
11078;SDS011;5592;49.234;7.268;2024-02-26T03:45:38;1.30;;;1.20;;
11078;SDS011;5592;49.234;7.268;2024-02-26T03:48:04;1.87;;;0.90;;
11078;SDS011;5592;49.234;7.268;2024-02-26T03:50:30;1.93;;;1.83;;
11078;SDS011;5592;49.234;7.268;2024-02-26T03:52:56;1.43;;;1.20;;
11078;SDS011;5592;49.234;7.268;2024-02-26T03:55:22;1.00;;;0.90;;
11078;SDS011;5592;49.234;7.268;2024-02-26T03:57:50;1.20;;;1.10;;
11078;SDS011;5592;49.234;7.268;2024-02-26T04:00:19;1.37;;;1.10;;
11078;SDS011;5592;49.234;7.268;2024-02-26T04:02:46;2.00;;;1.20;;
11078;SDS011;5592;49.234;7.268;2024-02-26T04:05:12;1.33;;;1.23;;
11078;SDS011;5592;49.234;7.268;2024-02-26T04:07:39;2.90;;;1.30;;
11078;SDS011;5592;49.234;7.268;2024-02-26T04:10:12;1.73;;;1.47;;
11078;SDS011;5592;49.234;7.268;2024-02-26T04:12:38;0.80;;;0.80;;
11078;SDS011;5592;49.234;7.268;2024-02-26T04:15:07;1.17;;;1.07;;
11078;SDS011;5592;49.234;7.268;2024-02-26T04:17:34;1.57;;;0.97;;
11078;SDS011;5592;49.234;7.268;2024-02-26T04:20:00;1.00;;;0.90;;
11078;SDS011;5592;49.234;7.268;2024-02-26T04:22:25;1.87;;;1.23;;
11078;SDS011;5592;49.234;7.268;2024-02-26T04:24:51;0.90;;;0.90;;
11078;SDS011;5592;49.234;7.268;2024-02-26T04:27:17;1.63;;;1.00;;
11078;SDS011;5592;49.234;7.268;2024-02-26T04:29:42;1.67;;;1.10;;
11078;SDS011;5592;49.234;7.268;2024-02-26T04:32:08;1.47;;;0.97;;
11078;SDS011;5592;49.234;7.268;2024-02-26T04:34:34;1.70;;;1.20;;
11078;SDS011;5592;49.234;7.268;2024-02-26T04:36:59;0.97;;;0.87;;
11078;SDS011;5592;49.234;7.268;2024-02-26T04:39:25;1.30;;;1.20;;
11078;SDS011;5592;49.234;7.268;2024-02-26T04:41:51;2.70;;;1.30;;
11078;SDS011;5592;49.234;7.268;2024-02-26T04:44:16;1.33;;;1.17;;
11078;SDS011;5592;49.234;7.268;2024-02-26T04:46:42;1.87;;;1.20;;
11078;SDS011;5592;49.234;7.268;2024-02-26T04:49:08;1.70;;;1.10;;
11078;SDS011;5592;49.234;7.268;2024-02-26T04:51:34;1.20;;;1.10;;
11078;SDS011;5592;49.234;7.268;2024-02-26T04:54:00;1.20;;;1.00;;
11078;SDS011;5592;49.234;7.268;2024-02-26T04:56:25;1.10;;;1.00;;
11078;SDS011;5592;49.234;7.268;2024-02-26T04:58:51;0.80;;;0.80;;
11078;SDS011;5592;49.234;7.268;2024-02-26T05:01:16;1.03;;;0.97;;
11078;SDS011;5592;49.234;7.268;2024-02-26T05:03:45;2.20;;;1.10;;
11078;SDS011;5592;49.234;7.268;2024-02-26T05:06:11;2.83;;;1.13;;
11078;SDS011;5592;49.234;7.268;2024-02-26T05:08:36;1.40;;;1.03;;
11078;SDS011;5592;49.234;7.268;2024-02-26T05:11:03;2.10;;;1.20;;
11078;SDS011;5592;49.234;7.268;2024-02-26T05:13:29;1.23;;;1.20;;
11078;SDS011;5592;49.234;7.268;2024-02-26T05:15:55;1.37;;;1.10;;
11078;SDS011;5592;49.234;7.268;2024-02-26T05:18:21;1.93;;;1.20;;
11078;SDS011;5592;49.234;7.268;2024-02-26T05:20:47;1.40;;;1.20;;
11078;SDS011;5592;49.234;7.268;2024-02-26T05:23:13;2.33;;;1.33;;
11078;SDS011;5592;49.234;7.268;2024-02-26T05:25:39;2.47;;;1.40;;
11078;SDS011;5592;49.234;7.268;2024-02-26T05:28:05;1.40;;;1.30;;
11078;SDS011;5592;49.234;7.268;2024-02-26T05:30:30;2.13;;;1.20;;
11078;SDS011;5592;49.234;7.268;2024-02-26T05:32:56;1.33;;;1.23;;
11078;SDS011;5592;49.234;7.268;2024-02-26T05:35:22;1.20;;;1.10;;
11078;SDS011;5592;49.234;7.268;2024-02-26T05:37:47;5.63;;;1.23;;
11078;SDS011;5592;49.234;7.268;2024-02-26T05:40:13;1.10;;;1.00;;
11078;SDS011;5592;49.234;7.268;2024-02-26T05:42:39;2.80;;;1.10;;
11078;SDS011;5592;49.234;7.268;2024-02-26T05:45:05;1.23;;;1.07;;
11078;SDS011;5592;49.234;7.268;2024-02-26T05:47:32;1.20;;;1.03;;
11078;SDS011;5592;49.234;7.268;2024-02-26T05:49:58;1.73;;;1.23;;
11078;SDS011;5592;49.234;7.268;2024-02-26T05:52:25;1.33;;;1.23;;
11078;SDS011;5592;49.234;7.268;2024-02-26T05:54:52;1.23;;;1.13;;
11078;SDS011;5592;49.234;7.268;2024-02-26T05:57:18;0.93;;;0.73;;
11078;SDS011;5592;49.234;7.268;2024-02-26T05:59:44;2.47;;;1.20;;
11078;SDS011;5592;49.234;7.268;2024-02-26T06:02:10;1.70;;;1.60;;
11078;SDS011;5592;49.234;7.268;2024-02-26T06:04:36;1.27;;;1.10;;
11078;SDS011;5592;49.234;7.268;2024-02-26T06:07:01;1.37;;;1.27;;
11078;SDS011;5592;49.234;7.268;2024-02-26T06:09:27;1.50;;;1.10;;
11078;SDS011;5592;49.234;7.268;2024-02-26T06:11:53;1.47;;;1.37;;
11078;SDS011;5592;49.234;7.268;2024-02-26T06:14:18;1.60;;;1.27;;
11078;SDS011;5592;49.234;7.268;2024-02-26T06:16:45;1.10;;;1.00;;
11078;SDS011;5592;49.234;7.268;2024-02-26T06:19:11;0.90;;;0.90;;
11078;SDS011;5592;49.234;7.268;2024-02-26T06:21:39;1.13;;;0.90;;
11078;SDS011;5592;49.234;7.268;2024-02-26T06:24:05;1.97;;;1.10;;
11078;SDS011;5592;49.234;7.268;2024-02-26T06:26:30;1.50;;;1.33;;
11078;SDS011;5592;49.234;7.268;2024-02-26T06:28:58;1.33;;;1.23;;
11078;SDS011;5592;49.234;7.268;2024-02-26T06:31:24;2.23;;;1.27;;
11078;SDS011;5592;49.234;7.268;2024-02-26T06:33:49;2.40;;;1.30;;
11078;SDS011;5592;49.234;7.268;2024-02-26T06:36:15;1.43;;;1.27;;
11078;SDS011;5592;49.234;7.268;2024-02-26T06:38:41;2.50;;;1.47;;
11078;SDS011;5592;49.234;7.268;2024-02-26T06:41:08;3.47;;;1.50;;
11078;SDS011;5592;49.234;7.268;2024-02-26T06:43:34;2.90;;;2.50;;
11078;SDS011;5592;49.234;7.268;2024-02-26T06:46:00;2.20;;;2.00;;
11078;SDS011;5592;49.234;7.268;2024-02-26T06:48:25;1.30;;;1.20;;
11078;SDS011;5592;49.234;7.268;2024-02-26T06:50:51;1.70;;;1.40;;
11078;SDS011;5592;49.234;7.268;2024-02-26T06:53:17;1.10;;;1.00;;
11078;SDS011;5592;49.234;7.268;2024-02-26T06:55:42;2.80;;;2.13;;
11078;SDS011;5592;49.234;7.268;2024-02-26T06:58:11;6.63;;;1.87;;
11078;SDS011;5592;49.234;7.268;2024-02-26T07:00:40;1.40;;;1.20;;
11078;SDS011;5592;49.234;7.268;2024-02-26T07:03:05;1.93;;;1.10;;
11078;SDS011;5592;49.234;7.268;2024-02-26T07:05:33;2.33;;;1.70;;
11078;SDS011;5592;49.234;7.268;2024-02-26T07:07:59;9.10;;;1.50;;
11078;SDS011;5592;49.234;7.268;2024-02-26T07:10:25;1.43;;;1.33;;
11078;SDS011;5592;49.234;7.268;2024-02-26T07:12:52;1.97;;;1.77;;
11078;SDS011;5592;49.234;7.268;2024-02-26T07:15:19;1.30;;;1.17;;
11078;SDS011;5592;49.234;7.268;2024-02-26T07:17:44;1.80;;;1.30;;
11078;SDS011;5592;49.234;7.268;2024-02-26T07:20:15;2.80;;;1.10;;
11078;SDS011;5592;49.234;7.268;2024-02-26T07:22:44;1.30;;;1.13;;
11078;SDS011;5592;49.234;7.268;2024-02-26T07:25:16;1.40;;;1.20;;
11078;SDS011;5592;49.234;7.268;2024-02-26T07:27:41;2.80;;;1.13;;
11078;SDS011;5592;49.234;7.268;2024-02-26T07:30:10;0.90;;;0.80;;
11078;SDS011;5592;49.234;7.268;2024-02-26T07:32:38;1.07;;;0.97;;
11078;SDS011;5592;49.234;7.268;2024-02-26T07:35:04;1.43;;;1.00;;
11078;SDS011;5592;49.234;7.268;2024-02-26T07:37:32;1.20;;;1.10;;
11078;SDS011;5592;49.234;7.268;2024-02-26T07:39:57;1.90;;;1.57;;
11078;SDS011;5592;49.234;7.268;2024-02-26T07:42:23;1.63;;;1.53;;
11078;SDS011;5592;49.234;7.268;2024-02-26T07:44:53;1.83;;;1.50;;
11078;SDS011;5592;49.234;7.268;2024-02-26T07:47:20;1.77;;;1.63;;
11078;SDS011;5592;49.234;7.268;2024-02-26T07:49:46;1.70;;;1.10;;
11078;SDS011;5592;49.234;7.268;2024-02-26T07:52:15;1.47;;;1.17;;
11078;SDS011;5592;49.234;7.268;2024-02-26T08:00:00;1.70;;;1.30;;
11078;SDS011;5592;49.234;7.268;2024-02-26T08:02:25;5.23;;;1.57;;
11078;SDS011;5592;49.234;7.268;2024-02-26T08:04:51;2.17;;;1.30;;
11078;SDS011;5592;49.234;7.268;2024-02-26T08:07:17;1.77;;;1.50;;
11078;SDS011;5592;49.234;7.268;2024-02-26T08:09:43;1.97;;;1.00;;
11078;SDS011;5592;49.234;7.268;2024-02-26T08:12:08;1.97;;;1.50;;
11078;SDS011;5592;49.234;7.268;2024-02-26T08:14:34;2.80;;;1.50;;
11078;SDS011;5592;49.234;7.268;2024-02-26T08:16:59;1.80;;;1.60;;
11078;SDS011;5592;49.234;7.268;2024-02-26T08:19:25;2.03;;;1.47;;
11078;SDS011;5592;49.234;7.268;2024-02-26T08:21:51;1.07;;;1.00;;
11078;SDS011;5592;49.234;7.268;2024-02-26T08:24:16;1.30;;;1.20;;
11078;SDS011;5592;49.234;7.268;2024-02-26T08:26:42;1.33;;;1.23;;
11078;SDS011;5592;49.234;7.268;2024-02-26T08:29:07;1.73;;;1.30;;
11078;SDS011;5592;49.234;7.268;2024-02-26T08:31:34;0.97;;;0.93;;
11078;SDS011;5592;49.234;7.268;2024-02-26T08:34:02;1.67;;;1.17;;
11078;SDS011;5592;49.234;7.268;2024-02-26T08:36:28;1.20;;;1.10;;
11078;SDS011;5592;49.234;7.268;2024-02-26T08:38:55;1.80;;;1.10;;
11078;SDS011;5592;49.234;7.268;2024-02-26T08:41:20;1.20;;;1.10;;
11078;SDS011;5592;49.234;7.268;2024-02-26T08:43:46;1.30;;;1.20;;
11078;SDS011;5592;49.234;7.268;2024-02-26T08:46:12;1.93;;;1.40;;
11078;SDS011;5592;49.234;7.268;2024-02-26T08:48:38;1.30;;;1.20;;
11078;SDS011;5592;49.234;7.268;2024-02-26T08:51:05;1.10;;;1.00;;
11078;SDS011;5592;49.234;7.268;2024-02-26T08:53:31;2.03;;;1.50;;
11078;SDS011;5592;49.234;7.268;2024-02-26T08:55:57;1.80;;;1.10;;
11078;SDS011;5592;49.234;7.268;2024-02-26T08:58:23;1.53;;;1.10;;
11078;SDS011;5592;49.234;7.268;2024-02-26T09:00:48;3.17;;;1.30;;
11078;SDS011;5592;49.234;7.268;2024-02-26T09:03:14;1.23;;;1.00;;
11078;SDS011;5592;49.234;7.268;2024-02-26T09:05:40;2.07;;;1.10;;
11078;SDS011;5592;49.234;7.268;2024-02-26T09:08:06;1.20;;;1.10;;
11078;SDS011;5592;49.234;7.268;2024-02-26T09:10:31;0.83;;;0.80;;
11078;SDS011;5592;49.234;7.268;2024-02-26T09:12:58;1.20;;;1.10;;
11078;SDS011;5592;49.234;7.268;2024-02-26T09:15:23;1.00;;;1.00;;
11078;SDS011;5592;49.234;7.268;2024-02-26T09:17:49;1.30;;;1.00;;
11078;SDS011;5592;49.234;7.268;2024-02-26T09:20:17;0.90;;;0.90;;
11078;SDS011;5592;49.234;7.268;2024-02-26T09:22:46;1.10;;;1.00;;
11078;SDS011;5592;49.234;7.268;2024-02-26T09:25:16;1.20;;;1.10;;
11078;SDS011;5592;49.234;7.268;2024-02-26T09:27:43;1.20;;;1.10;;
11078;SDS011;5592;49.234;7.268;2024-02-26T09:30:09;1.90;;;1.10;;
11078;SDS011;5592;49.234;7.268;2024-02-26T09:32:36;1.03;;;0.93;;
11078;SDS011;5592;49.234;7.268;2024-02-26T09:35:02;1.30;;;1.00;;
11078;SDS011;5592;49.234;7.268;2024-02-26T09:37:30;1.60;;;1.03;;
11078;SDS011;5592;49.234;7.268;2024-02-26T09:39:55;1.20;;;1.00;;
11078;SDS011;5592;49.234;7.268;2024-02-26T09:42:21;1.00;;;0.90;;
11078;SDS011;5592;49.234;7.268;2024-02-26T09:44:53;0.90;;;0.90;;
11078;SDS011;5592;49.234;7.268;2024-02-26T09:47:23;1.60;;;1.30;;
11078;SDS011;5592;49.234;7.268;2024-02-26T09:49:50;0.80;;;0.80;;
11078;SDS011;5592;49.234;7.268;2024-02-26T09:52:18;1.57;;;1.00;;
11078;SDS011;5592;49.234;7.268;2024-02-26T09:54:48;1.30;;;1.00;;
11078;SDS011;5592;49.234;7.268;2024-02-26T09:57:13;1.23;;;1.00;;
11078;SDS011;5592;49.234;7.268;2024-02-26T09:59:42;0.90;;;0.87;;
11078;SDS011;5592;49.234;7.268;2024-02-26T10:02:08;1.23;;;0.93;;
11078;SDS011;5592;49.234;7.268;2024-02-26T10:04:39;1.20;;;0.93;;
11078;SDS011;5592;49.234;7.268;2024-02-26T10:07:07;1.80;;;1.10;;
11078;SDS011;5592;49.234;7.268;2024-02-26T10:09:35;0.90;;;0.90;;
11078;SDS011;5592;49.234;7.268;2024-02-26T10:12:01;1.40;;;1.00;;
11078;SDS011;5592;49.234;7.268;2024-02-26T10:14:27;1.57;;;1.10;;
11078;SDS011;5592;49.234;7.268;2024-02-26T10:16:53;1.03;;;0.93;;
11078;SDS011;5592;49.234;7.268;2024-02-26T10:19:28;0.93;;;0.90;;
11078;SDS011;5592;49.234;7.268;2024-02-26T10:21:58;1.80;;;1.30;;
11078;SDS011;5592;49.234;7.268;2024-02-26T10:24:25;0.93;;;0.90;;
11078;SDS011;5592;49.234;7.268;2024-02-26T10:26:51;2.43;;;1.10;;
11078;SDS011;5592;49.234;7.268;2024-02-26T10:29:21;1.90;;;1.00;;
11078;SDS011;5592;49.234;7.268;2024-02-26T10:31:50;1.10;;;1.00;;
11078;SDS011;5592;49.234;7.268;2024-02-26T10:34:19;0.83;;;0.80;;
11078;SDS011;5592;49.234;7.268;2024-02-26T10:36:48;1.20;;;1.00;;
11078;SDS011;5592;49.234;7.268;2024-02-26T10:39:14;1.53;;;0.80;;
11078;SDS011;5592;49.234;7.268;2024-02-26T10:44:24;0.97;;;0.83;;
11078;SDS011;5592;49.234;7.268;2024-02-26T10:46:51;0.80;;;0.80;;
11078;SDS011;5592;49.234;7.268;2024-02-26T10:49:17;0.80;;;0.80;;
11078;SDS011;5592;49.234;7.268;2024-02-26T10:51:44;1.00;;;0.90;;
11078;SDS011;5592;49.234;7.268;2024-02-26T10:54:15;0.90;;;0.77;;
11078;SDS011;5592;49.234;7.268;2024-02-26T10:56:41;0.80;;;0.80;;
11078;SDS011;5592;49.234;7.268;2024-02-26T10:59:09;0.73;;;0.73;;
11078;SDS011;5592;49.234;7.268;2024-02-26T11:01:36;1.03;;;0.90;;
11078;SDS011;5592;49.234;7.268;2024-02-26T11:04:05;0.90;;;0.70;;
11078;SDS011;5592;49.234;7.268;2024-02-26T11:06:36;1.43;;;1.00;;
11078;SDS011;5592;49.234;7.268;2024-02-26T11:09:02;1.20;;;0.90;;
11078;SDS011;5592;49.234;7.268;2024-02-26T11:11:30;0.90;;;0.80;;
11078;SDS011;5592;49.234;7.268;2024-02-26T11:14:00;1.17;;;0.70;;
11078;SDS011;5592;49.234;7.268;2024-02-26T11:16:28;0.80;;;0.80;;
11078;SDS011;5592;49.234;7.268;2024-02-26T11:18:56;0.80;;;0.80;;
11078;SDS011;5592;49.234;7.268;2024-02-26T11:21:25;0.70;;;0.70;;
11078;SDS011;5592;49.234;7.268;2024-02-26T11:24:14;0.80;;;0.80;;
11078;SDS011;5592;49.234;7.268;2024-02-26T11:26:44;1.13;;;0.70;;
11078;SDS011;5592;49.234;7.268;2024-02-26T11:29:14;0.60;;;0.60;;
11078;SDS011;5592;49.234;7.268;2024-02-26T11:31:44;1.70;;;0.80;;
11078;SDS011;5592;49.234;7.268;2024-02-26T11:34:18;1.13;;;0.90;;
11078;SDS011;5592;49.234;7.268;2024-02-26T11:36:45;0.80;;;0.70;;
11078;SDS011;5592;49.234;7.268;2024-02-26T11:39:12;0.80;;;0.67;;
11078;SDS011;5592;49.234;7.268;2024-02-26T11:41:40;2.30;;;0.70;;
11078;SDS011;5592;49.234;7.268;2024-02-26T11:44:05;0.70;;;0.70;;
11078;SDS011;5592;49.234;7.268;2024-02-26T11:49:44;0.60;;;0.60;;
11078;SDS011;5592;49.234;7.268;2024-02-26T11:51:54;0.80;;;0.70;;
11078;SDS011;5592;49.234;7.268;2024-02-26T11:54:39;0.80;;;0.80;;
11078;SDS011;5592;49.234;7.268;2024-02-26T12:02:46;0.90;;;0.90;;
11078;SDS011;5592;49.234;7.268;2024-02-26T12:05:15;1.13;;;1.00;;
11078;SDS011;5592;49.234;7.268;2024-02-26T12:07:48;1.47;;;0.90;;
11078;SDS011;5592;49.234;7.268;2024-02-26T12:10:15;0.70;;;0.70;;
11078;SDS011;5592;49.234;7.268;2024-02-26T12:12:59;0.73;;;0.73;;
11078;SDS011;5592;49.234;7.268;2024-02-26T12:15:35;0.83;;;0.83;;
11078;SDS011;5592;49.234;7.268;2024-02-26T12:18:03;0.70;;;0.70;;
11078;SDS011;5592;49.234;7.268;2024-02-26T12:20:30;0.80;;;0.80;;
11078;SDS011;5592;49.234;7.268;2024-02-26T12:22:56;2.10;;;0.80;;
11078;SDS011;5592;49.234;7.268;2024-02-26T12:25:23;0.70;;;0.60;;
11078;SDS011;5592;49.234;7.268;2024-02-26T12:27:51;2.13;;;0.73;;
11078;SDS011;5592;49.234;7.268;2024-02-26T12:30:17;0.60;;;0.60;;
11078;SDS011;5592;49.234;7.268;2024-02-26T12:32:44;0.70;;;0.70;;
11078;SDS011;5592;49.234;7.268;2024-02-26T12:35:10;1.07;;;0.83;;
11078;SDS011;5592;49.234;7.268;2024-02-26T12:37:36;2.60;;;0.67;;
11078;SDS011;5592;49.234;7.268;2024-02-26T12:40:04;1.17;;;0.70;;
11078;SDS011;5592;49.234;7.268;2024-02-26T12:42:35;0.83;;;0.80;;
11078;SDS011;5592;49.234;7.268;2024-02-26T12:45:07;0.70;;;0.70;;
11078;SDS011;5592;49.234;7.268;2024-02-26T12:47:38;0.80;;;0.67;;
11078;SDS011;5592;49.234;7.268;2024-02-26T12:50:04;0.83;;;0.70;;
11078;SDS011;5592;49.234;7.268;2024-02-26T12:52:34;0.80;;;0.60;;
11078;SDS011;5592;49.234;7.268;2024-02-26T12:55:01;0.80;;;0.70;;
11078;SDS011;5592;49.234;7.268;2024-02-26T12:57:28;0.83;;;0.77;;
11078;SDS011;5592;49.234;7.268;2024-02-26T12:59:56;0.77;;;0.70;;
11078;SDS011;5592;49.234;7.268;2024-02-26T13:02:23;0.70;;;0.70;;
11078;SDS011;5592;49.234;7.268;2024-02-26T13:04:49;0.60;;;0.60;;
11078;SDS011;5592;49.234;7.268;2024-02-26T13:07:15;2.30;;;0.63;;
11078;SDS011;5592;49.234;7.268;2024-02-26T13:09:41;0.80;;;0.60;;
11078;SDS011;5592;49.234;7.268;2024-02-26T13:12:07;0.80;;;0.60;;
11078;SDS011;5592;49.234;7.268;2024-02-26T13:14:33;1.00;;;0.73;;
11078;SDS011;5592;49.234;7.268;2024-02-26T13:16:59;0.70;;;0.70;;
11078;SDS011;5592;49.234;7.268;2024-02-26T13:19:26;1.00;;;0.70;;
11078;SDS011;5592;49.234;7.268;2024-02-26T13:21:53;0.87;;;0.80;;
11078;SDS011;5592;49.234;7.268;2024-02-26T13:24:19;1.17;;;0.83;;
11078;SDS011;5592;49.234;7.268;2024-02-26T13:26:45;0.93;;;0.87;;
11078;SDS011;5592;49.234;7.268;2024-02-26T13:29:20;0.97;;;0.73;;
11078;SDS011;5592;49.234;7.268;2024-02-26T13:31:46;0.80;;;0.70;;
11078;SDS011;5592;49.234;7.268;2024-02-26T13:34:22;0.80;;;0.73;;
11078;SDS011;5592;49.234;7.268;2024-02-26T13:36:53;1.47;;;0.80;;
11078;SDS011;5592;49.234;7.268;2024-02-26T13:39:26;0.60;;;0.60;;
11078;SDS011;5592;49.234;7.268;2024-02-26T13:41:53;0.80;;;0.60;;
11078;SDS011;5592;49.234;7.268;2024-02-26T13:44:19;1.83;;;1.50;;
11078;SDS011;5592;49.234;7.268;2024-02-26T13:46:45;1.27;;;0.70;;
11078;SDS011;5592;49.234;7.268;2024-02-26T13:49:12;0.80;;;0.70;;
11078;SDS011;5592;49.234;7.268;2024-02-26T13:51:41;0.70;;;0.70;;
11078;SDS011;5592;49.234;7.268;2024-02-26T13:54:07;1.80;;;0.90;;
11078;SDS011;5592;49.234;7.268;2024-02-26T13:56:34;4.43;;;0.80;;
11078;SDS011;5592;49.234;7.268;2024-02-26T13:59:00;0.70;;;0.60;;
11078;SDS011;5592;49.234;7.268;2024-02-26T14:01:25;2.30;;;0.70;;
11078;SDS011;5592;49.234;7.268;2024-02-26T14:03:51;0.70;;;0.70;;
11078;SDS011;5592;49.234;7.268;2024-02-26T14:06:20;0.90;;;0.70;;
11078;SDS011;5592;49.234;7.268;2024-02-26T14:08:45;0.73;;;0.60;;
11078;SDS011;5592;49.234;7.268;2024-02-26T14:11:13;1.37;;;0.83;;
11078;SDS011;5592;49.234;7.268;2024-02-26T14:13:39;0.60;;;0.60;;
11078;SDS011;5592;49.234;7.268;2024-02-26T14:16:05;0.80;;;0.80;;
11078;SDS011;5592;49.234;7.268;2024-02-26T14:18:30;1.90;;;0.90;;
11078;SDS011;5592;49.234;7.268;2024-02-26T14:20:56;1.43;;;1.20;;
11078;SDS011;5592;49.234;7.268;2024-02-26T14:23:22;1.17;;;0.80;;
11078;SDS011;5592;49.234;7.268;2024-02-26T14:25:47;3.17;;;0.70;;
11078;SDS011;5592;49.234;7.268;2024-02-26T14:28:13;1.43;;;0.70;;
11078;SDS011;5592;49.234;7.268;2024-02-26T14:30:39;1.83;;;1.03;;
11078;SDS011;5592;49.234;7.268;2024-02-26T14:33:04;0.70;;;0.70;;
11078;SDS011;5592;49.234;7.268;2024-02-26T14:35:30;3.50;;;1.00;;
11078;SDS011;5592;49.234;7.268;2024-02-26T14:37:55;0.63;;;0.63;;
11078;SDS011;5592;49.234;7.268;2024-02-26T14:40:25;0.70;;;0.60;;
11078;SDS011;5592;49.234;7.268;2024-02-26T14:42:51;1.30;;;1.10;;
11078;SDS011;5592;49.234;7.268;2024-02-26T14:45:17;0.70;;;0.70;;
11078;SDS011;5592;49.234;7.268;2024-02-26T14:47:42;0.80;;;0.80;;
11078;SDS011;5592;49.234;7.268;2024-02-26T14:50:08;2.40;;;0.80;;
11078;SDS011;5592;49.234;7.268;2024-02-26T14:52:34;1.17;;;0.90;;
11078;SDS011;5592;49.234;7.268;2024-02-26T14:54:59;1.00;;;0.73;;
11078;SDS011;5592;49.234;7.268;2024-02-26T14:57:25;0.60;;;0.60;;
11078;SDS011;5592;49.234;7.268;2024-02-26T14:59:50;0.80;;;0.80;;
11078;SDS011;5592;49.234;7.268;2024-02-26T15:02:16;2.00;;;0.77;;
11078;SDS011;5592;49.234;7.268;2024-02-26T15:04:43;1.10;;;0.87;;
11078;SDS011;5592;49.234;7.268;2024-02-26T15:07:09;1.07;;;0.97;;
11078;SDS011;5592;49.234;7.268;2024-02-26T15:09:37;1.87;;;0.80;;
11078;SDS011;5592;49.234;7.268;2024-02-26T15:12:03;1.10;;;1.00;;
11078;SDS011;5592;49.234;7.268;2024-02-26T15:14:31;1.43;;;1.10;;